Weather reports worldwide

Advertisment
Mt. St.Vincent, France (7382): temperature & dewpoint: 15.05.2019 05:00:00 - 21.05.2019 05:00:00 (CEST)Mt. St.Vincent, France (7382): wind speed & gusts: 15.05.2019 05:00:00 - 21.05.2019 05:00:00 (CEST)Mt. St.Vincent, France (7382): wind direction: 15.05.2019 05:00:00 - 21.05.2019 05:00:00 (CEST)Mt. St.Vincent, France (7382): sunshine duration: 15.05.2019 05:00:00 - 21.05.2019 05:00:00 (CEST)Mt. St.Vincent, France (7382): precipitation: 15.05.2019 05:00:00 - 21.05.2019 05:00:00 (CEST)
Date & Time tt [°C] td [°C] ff [km/h] ff [kn] fx [km/h] fx [kn] dd sd [min] rr [mm]
21.05.2019 05:00:00 9,3 9,3 11 6 21 11 W 0 0,0
21.05.2019 04:00:00 9,2 8,9 15 8 22 12 W 0 0,0
21.05.2019 03:00:00 9,4 9,1 13 7 22 12 W 0 0,0
21.05.2019 02:00:00 9,5 8,9 16 9 28 15 W 0 -
21.05.2019 01:00:00 9,8 9,2 15 8 24 13 W 0 0,0
21.05.2019 00:00:00 10,0 9,4 15 8 24 13 W 0 0,0
20.05.2019 23:00:00 10,2 9,1 8 4 16 9 WNW 0 0,0
20.05.2019 22:00:00 10,3 9,2 4 2 26 14 NW 0 0,0
20.05.2019 21:00:00 10,7 9,1 4 2 24 13 NW 0 0,0
20.05.2019 20:00:00 11,5 9,6 8 4 29 16 NW 0 -
20.05.2019 19:00:00 12,1 9,7 8 4 34 18 NW 0 0,0
20.05.2019 18:00:00 11,9 10,8 18 10 37 20 W 0 0,0
20.05.2019 17:00:00 11,6 10,7 21 11 37 20 WNW 0 0,0
20.05.2019 16:00:00 11,6 10,3 21 11 41 22 WNW 0 0,0
20.05.2019 15:00:00 11,8 9,7 15 8 41 22 WNW 0 0,0
20.05.2019 14:00:00 12,4 10,1 16 9 48 26 WNW 0 -
20.05.2019 13:00:00 11,7 10,1 22 12 46 25 WNW 12 0,0
20.05.2019 12:00:00 11,6 10,5 24 13 48 26 WNW 0 0,0
20.05.2019 11:00:00 10,4 10,4 28 15 41 22 W 0 0,0
20.05.2019 10:00:00 10,0 10,0 24 13 44 24 WNW 0 0,0
20.05.2019 09:00:00 10,0 10,0 22 12 44 24 WNW 0 0,0
20.05.2019 08:00:00 9,9 9,9 26 14 41 22 WNW 0 -
20.05.2019 07:00:00 9,8 9,8 24 13 41 22 WNW 0 0,0
20.05.2019 06:00:00 9,8 9,8 24 13 37 20 WNW 0 0,0
20.05.2019 05:00:00 9,6 9,6 22 12 34 18 WNW 0 0,0
20.05.2019 04:00:00 9,3 9,3 24 13 34 18 W 0 0,0
20.05.2019 03:00:00 9,5 9,5 22 12 34 18 W 0 0,2
20.05.2019 02:00:00 9,7 9,7 15 8 29 16 WNW 0 -
20.05.2019 01:00:00 10,1 10,1 21 11 34 18 WNW 0 0,2
20.05.2019 00:00:00 10,3 10,3 22 12 34 18 W 0 0,0
19.05.2019 23:00:00 10,5 10,3 21 11 35 19 W 0 0,0
19.05.2019 22:00:00 10,9 9,8 18 10 34 18 WNW 0 0,0
19.05.2019 21:00:00 11,1 9,8 18 10 29 16 WNW 0 0,0
19.05.2019 20:00:00 11,2 9,9 15 8 31 17 WNW 0 -
19.05.2019 19:00:00 10,9 9,8 18 10 31 17 WNW 0 0,0
19.05.2019 18:00:00 11,7 9,6 15 8 31 17 WNW 0 0,0
19.05.2019 17:00:00 11,4 9,1 9 5 31 17 WNW 0 0,4
19.05.2019 16:00:00 12,3 8,8 21 11 37 20 W 0 0,0
19.05.2019 15:00:00 13,5 8,3 21 11 41 22 W 18 0,0
19.05.2019 14:00:00 14,3 9,5 21 11 37 20 W 42 -
19.05.2019 13:00:00 12,6 9,6 18 10 34 18 W 24 0,0
19.05.2019 12:00:00 12,2 9,4 16 9 37 20 WNW 24 0,0
19.05.2019 11:00:00 10,8 9,4 16 9 31 17 WNW 24 0,0
19.05.2019 10:00:00 9,3 9,2 18 10 28 15 W 0 0,0
19.05.2019 09:00:00 8,4 8,4 15 8 29 16 WNW 0 0,0
19.05.2019 08:00:00 7,9 7,9 15 8 34 18 WNW 0 -
19.05.2019 07:00:00 7,6 7,6 18 10 35 19 WNW 0 0,0
19.05.2019 06:00:00 7,4 7,4 24 13 37 20 WNW 0 0,0
19.05.2019 05:00:00 7,4 7,4 26 14 41 22 WNW 0 0,0
19.05.2019 04:00:00 7,6 7,6 22 12 35 19 WNW 0 0,0
19.05.2019 03:00:00 7,9 7,6 22 12 34 18 WNW 0 0,0
19.05.2019 02:00:00 8,3 7,5 21 11 34 18 WNW 0 -
19.05.2019 01:00:00 8,9 7,8 18 10 31 17 WNW 0 0,0
19.05.2019 00:00:00 9,2 7,6 16 9 28 15 WNW 0 0,0
18.05.2019 23:00:00 9,7 7,3 18 10 29 16 WNW 0 0,0
18.05.2019 22:00:00 10,5 7,7 15 8 26 14 WNW 0 0,0
18.05.2019 21:00:00 11,6 7,3 15 8 28 15 WNW 24 0,0
18.05.2019 20:00:00 12,1 7,8 15 8 29 16 W 0 -
18.05.2019 19:00:00 12,6 7,5 18 10 34 18 W 0 0,0
18.05.2019 18:00:00 12,6 8,1 18 10 31 17 W 0 0,0
18.05.2019 17:00:00 12,8 7,9 18 10 35 19 W 18 0,0
18.05.2019 16:00:00 13,5 10,5 18 10 31 17 W 12 0,4
18.05.2019 15:00:00 12,4 8,1 18 10 29 16 W 0 0,0
18.05.2019 14:00:00 13,4 7,8 13 7 34 18 SSE 0 -
18.05.2019 13:00:00 13,8 8,0 13 7 39 21 ESE 6 0,0
18.05.2019 12:00:00 13,5 9,7 16 9 29 16 SE 36 0,0
18.05.2019 11:00:00 12,0 9,2 15 8 29 16 E 42 0,0
18.05.2019 10:00:00 9,9 7,5 18 10 34 18 SE 0 0,0
18.05.2019 09:00:00 9,6 7,5 16 9 28 15 ESE 18 0,0
18.05.2019 08:00:00 7,6 7,5 16 9 28 15 E 0 -
18.05.2019 07:00:00 7,3 7,0 16 9 22 12 E 0 0,0
18.05.2019 06:00:00 8,0 6,3 18 10 28 15 SE 0 0,0
18.05.2019 05:00:00 8,6 5,7 18 10 29 16 S 0 0,0
18.05.2019 04:00:00 8,4 6,2 16 9 26 14 SSE 0 0,0
18.05.2019 03:00:00 8,1 6,7 18 10 28 15 SSE 0 0,0
18.05.2019 02:00:00 7,9 6,7 16 9 28 15 SSE 0 -
18.05.2019 01:00:00 7,8 7,0 18 10 26 14 SSE 0 0,0
18.05.2019 00:00:00 7,5 7,1 16 9 29 16 SE 0 0,0
17.05.2019 23:00:00 7,7 7,4 18 10 31 17 SE 0 0,0
17.05.2019 22:00:00 7,8 7,2 18 10 29 16 ESE 0 0,0
17.05.2019 21:00:00 8,1 6,6 18 10 26 14 SE 0 0,0
17.05.2019 20:00:00 8,0 6,8 15 8 28 15 SSE 0 -
17.05.2019 19:00:00 9,4 6,5 15 8 29 16 S 0 0,0
17.05.2019 18:00:00 11,2 5,9 18 10 35 19 SW 0 0,0
17.05.2019 17:00:00 12,5 6,5 15 8 26 14 S 0 0,0
17.05.2019 16:00:00 12,1 7,4 16 9 37 20 SW 0 0,0
17.05.2019 15:00:00 13,8 6,4 16 9 31 17 WSW 0 0,0
17.05.2019 14:00:00 13,7 6,8 21 11 39 21 WSW 0 -
17.05.2019 13:00:00 12,8 5,9 22 12 44 24 WSW 6 0,0
17.05.2019 12:00:00 14,4 6,7 18 10 31 17 WSW 54 0,0
17.05.2019 11:00:00 13,6 6,5 5 3 22 12 SSE 60 0,0
17.05.2019 10:00:00 11,3 6,4 15 8 22 12 ESE 36 0,0
17.05.2019 09:00:00 8,6 5,9 11 6 28 15 E 0 0,0
17.05.2019 08:00:00 7,0 4,8 22 12 34 18 E 0 -
17.05.2019 07:00:00 6,7 4,2 24 13 31 17 E 0 0,0
17.05.2019 06:00:00 7,4 4,0 21 11 26 14 E 0 0,0
17.05.2019 05:00:00 7,8 3,8 13 7 18 10 ENE 0 0,0
17.05.2019 04:00:00 8,3 3,9 16 9 26 14 E 0 0,0
17.05.2019 03:00:00 8,9 3,9 16 9 26 14 ENE 0 0,0
17.05.2019 02:00:00 9,2 4,0 18 10 28 15 ENE 0 -
17.05.2019 01:00:00 9,5 4,1 18 10 29 16 ENE 0 0,0
17.05.2019 00:00:00 10,2 4,1 22 12 31 17 ENE 0 0,0
16.05.2019 23:00:00 10,3 4,0 21 11 29 16 ENE 0 0,0
16.05.2019 22:00:00 10,8 3,8 18 10 29 16 NE 0 0,0
16.05.2019 21:00:00 11,3 4,0 15 8 28 15 NE 12 0,0
16.05.2019 20:00:00 12,3 4,0 16 9 29 16 ENE 60 -
16.05.2019 19:00:00 13,6 3,9 13 7 28 15 ENE 60 0,0
16.05.2019 18:00:00 14,2 3,6 15 8 35 19 ENE 60 0,0
16.05.2019 17:00:00 14,6 4,0 15 8 39 21 ENE 60 0,0
16.05.2019 16:00:00 14,9 2,7 13 7 31 17 NE 60 0,0
16.05.2019 15:00:00 14,1 2,9 13 7 29 16 ENE 60 0,0
16.05.2019 14:00:00 13,7 3,2 15 8 31 17 NE 60 -
16.05.2019 13:00:00 13,1 2,9 13 7 35 19 NE 60 0,0
16.05.2019 12:00:00 12,2 2,9 15 8 37 20 NE 60 0,0
16.05.2019 11:00:00 11,1 1,9 18 10 41 22 NE 60 0,0
16.05.2019 10:00:00 9,7 1,8 22 12 42 23 NE 60 0,0
16.05.2019 09:00:00 8,3 1,2 21 11 44 24 NE 60 0,0
16.05.2019 08:00:00 7,1 0,7 22 12 46 25 ENE 60 -
16.05.2019 07:00:00 6,0 -0,1 26 14 44 24 NE 30 0,0
16.05.2019 06:00:00 5,8 -0,5 22 12 42 23 NE 0 0,0
16.05.2019 05:00:00 6,2 -0,5 22 12 42 23 NNE 0 0,0
16.05.2019 04:00:00 6,2 -0,8 16 9 37 20 NNE 0 0,0
16.05.2019 03:00:00 6,9 -0,6 22 12 42 23 NE 0 0,0
16.05.2019 02:00:00 7,0 -1,2 22 12 37 20 NE 0 -
16.05.2019 01:00:00 7,6 -1,4 21 11 41 22 NE 0 0,0
16.05.2019 00:00:00 8,0 -0,8 21 11 41 22 NNE 0 0,0
15.05.2019 23:00:00 8,7 -0,1 16 9 35 19 NNE 0 0,0
15.05.2019 22:00:00 9,4 0,5 16 9 44 24 NNE 0 0,0
15.05.2019 21:00:00 10,4 0,4 18 10 44 24 NE 30 0,0
15.05.2019 20:00:00 11,6 0,9 21 11 52 28 NNE 60 -
15.05.2019 19:00:00 12,6 1,3 18 10 52 28 NNE 60 0,0
15.05.2019 18:00:00 13,3 1,3 18 10 59 32 NNE 60 0,0
15.05.2019 17:00:00 12,8 0,8 24 13 55 30 NNE 48 0,0
15.05.2019 16:00:00 12,8 2,0 22 12 54 29 NE 54 0,0
15.05.2019 15:00:00 12,4 2,3 22 12 50 27 NNE 54 0,0
15.05.2019 14:00:00 11,8 1,4 26 14 67 36 NE 60 -
15.05.2019 13:00:00 10,8 0,5 34 18 74 40 NE 60 0,0
15.05.2019 12:00:00 10,2 0,8 35 19 70 38 NE 60 0,0
15.05.2019 11:00:00 9,2 0,4 31 17 65 35 NE 60 0,0
15.05.2019 10:00:00 8,1 0,3 28 15 65 35 NE 60 0,0
15.05.2019 09:00:00 6,8 -0,2 34 18 65 35 NE 60 0,0
15.05.2019 08:00:00 5,6 -0,5 29 16 67 36 NE 60 -
15.05.2019 07:00:00 4,9 -1,3 31 17 59 32 NE 24 0,0
15.05.2019 06:00:00 4,4 -2,3 29 16 - - NE 0 0,0
15.05.2019 05:00:00 4,7 -2,4 - - - - - 0 0,0

tt = temperature
td = dewpoint
ff = wind speed
fx = gusts
dd = wind direction
sd = sunshine duration
rr = precipitation

Next stations